createdAt,value
2022-12-25T00:00:34.882Z,100624.41
2022-12-25T00:03:37.181Z,100624.41
2022-12-25T00:06:39.009Z,100618.31
2022-12-25T00:09:40.775Z,100613.97
2022-12-25T00:12:42.499Z,100609.75
2022-12-25T00:15:44.138Z,100614.06
2022-12-25T00:18:46.398Z,100615.03
2022-12-25T00:21:48.039Z,100611.41
2022-12-25T00:24:49.917Z,100609.59
2022-12-25T00:27:51.841Z,100607.88
2022-12-25T00:30:53.543Z,100611.94
2022-12-25T00:33:55.274Z,100621.41
2022-12-25T00:36:56.920Z,100640.25
2022-12-25T00:39:59.168Z,100641.28
2022-12-25T00:43:01.230Z,100645.94
2022-12-25T00:46:05.884Z,100648.91
2022-12-25T00:49:07.643Z,100651.91
2022-12-25T00:52:09.879Z,100652.75
2022-12-25T00:55:11.534Z,100657.38
2022-12-25T00:58:13.346Z,100663.47
2022-12-25T01:01:15.248Z,100661.44
2022-12-25T01:04:17.130Z,100655.22
2022-12-25T01:07:19.703Z,100658.97
2022-12-25T01:10:27.326Z,100651.50
2022-12-25T01:13:30.017Z,100652.59
2022-12-25T01:16:31.895Z,100649.50
2022-12-25T01:19:33.743Z,100647.97
2022-12-25T01:22:35.514Z,100649.69
2022-12-25T01:25:37.322Z,100651.53
2022-12-25T01:28:39.104Z,100642.28
2022-12-25T01:31:40.726Z,100637.06
2022-12-25T01:34:42.306Z,100644.53
2022-12-25T01:37:44.062Z,100645.41
2022-12-25T01:40:45.746Z,100650.53
2022-12-25T01:44:06.144Z,100657.50
2022-12-25T01:47:07.756Z,100662.69
2022-12-25T01:50:09.704Z,100650.03
2022-12-25T01:53:12.260Z,100651.69
2022-12-25T01:56:14.122Z,100643.19
2022-12-25T01:59:19.670Z,100653.41
2022-12-25T02:02:22.401Z,100650.91
2022-12-25T02:05:29.321Z,100658.59
2022-12-25T02:08:31.161Z,100668.56
2022-12-25T02:11:51.543Z,100669.94
2022-12-25T02:15:01.234Z,100672.22
2022-12-25T02:18:19.447Z,100681.84
2022-12-25T02:21:42.686Z,100670.84
2022-12-25T02:25:12.748Z,100661.75
2022-12-25T02:28:45.433Z,100670.97
2022-12-25T02:31:59.801Z,100675.72
2022-12-25T02:35:11.257Z,100678.81
2022-12-25T02:38:20.438Z,100676.13
2022-12-25T02:41:22.553Z,100669.31
2022-12-25T02:44:44.509Z,100663.81
2022-12-25T02:48:05.057Z,100660.50
2022-12-25T02:51:29.470Z,100652.91
2022-12-25T02:54:56.069Z,100645.50
2022-12-25T02:58:20.727Z,100644.78
2022-12-25T03:01:43.848Z,100651.31
2022-12-25T03:05:05.705Z,100645.34
2022-12-25T03:08:13.983Z,100643.41
2022-12-25T03:11:34.263Z,100641.19
2022-12-25T03:14:54.935Z,100642.44
2022-12-25T03:17:59.413Z,100641.91
2022-12-25T03:21:21.365Z,100636.03
2022-12-25T03:24:41.456Z,100636.50
2022-12-25T03:27:46.777Z,100633.88
2022-12-25T03:31:17.223Z,100635.63
2022-12-25T03:35:11.779Z,100636.34
2022-12-25T03:39:04.082Z,100640.38
2022-12-25T03:42:25.566Z,100645.91
2022-12-25T03:45:56.667Z,100639.94
2022-12-25T03:49:22.823Z,100641.50
2022-12-25T03:52:47.558Z,100646.72
2022-12-25T03:56:10.053Z,100637.78
2022-12-25T03:59:30.481Z,100636.31
2022-12-25T04:02:51.537Z,100631.59
2022-12-25T04:06:11.950Z,100623.53
2022-12-25T04:09:32.304Z,100618.28
2022-12-25T04:12:52.341Z,100619.03
2022-12-25T04:16:13.205Z,100626.50
2022-12-25T04:19:33.369Z,100628.44
2022-12-25T04:22:53.593Z,100631.91
2022-12-25T04:26:17.052Z,100632.59
2022-12-25T04:29:37.125Z,100623.06
2022-12-25T04:32:57.510Z,100607.34
2022-12-25T04:36:12.269Z,100606.78
2022-12-25T04:39:14.200Z,100612.22
2022-12-25T04:42:16.954Z,100607.41
2022-12-25T04:45:19.355Z,100592.25
2022-12-25T04:48:21.432Z,100589.28
2022-12-25T04:51:25.514Z,100586.22
2022-12-25T04:54:27.208Z,100588.56
2022-12-25T04:57:28.787Z,100590.59
2022-12-25T05:00:30.628Z,100591.78
2022-12-25T05:03:32.923Z,100596.44
2022-12-25T05:06:34.790Z,100590.56
2022-12-25T05:09:36.404Z,100587.59
2022-12-25T05:12:38.096Z,100598.59
2022-12-25T05:15:40.813Z,100582.38
2022-12-25T05:18:42.719Z,100587.50
2022-12-25T05:21:44.345Z,100584.84
2022-12-25T05:24:46.027Z,100584.03
2022-12-25T05:27:53.754Z,100587.94
2022-12-25T05:30:57.699Z,100589.75
2022-12-25T05:33:59.639Z,100588.28
2022-12-25T05:37:01.224Z,100586.53
2022-12-25T05:40:03.880Z,100598.94
2022-12-25T05:43:05.770Z,100591.31
2022-12-25T05:46:09.857Z,100591.47
2022-12-25T05:49:11.676Z,100583.56
2022-12-25T05:52:13.413Z,100576.91
2022-12-25T05:55:15.290Z,100570.22
2022-12-25T05:58:16.931Z,100572.63
2022-12-25T06:01:23.370Z,100566.84
2022-12-25T06:04:25.268Z,100575.44
2022-12-25T06:07:27.006Z,100578.72
2022-12-25T06:10:28.747Z,100580.41
2022-12-25T06:13:31.624Z,100571.03
2022-12-25T06:16:37.870Z,100582.16
2022-12-25T06:19:42.742Z,100581.41
2022-12-25T06:22:45.873Z,100585.72
2022-12-25T06:25:48.649Z,100582.38
2022-12-25T06:28:50.617Z,100578.09
2022-12-25T06:31:57.274Z,100582.16
2022-12-25T06:34:59.205Z,100576.59
2022-12-25T06:38:01.131Z,100572.53
2022-12-25T06:41:05.626Z,100565.50
2022-12-25T06:44:07.463Z,100561.94
2022-12-25T06:47:09.247Z,100561.19
2022-12-25T06:50:10.870Z,100548.38
2022-12-25T06:53:12.867Z,100534.97
2022-12-25T06:56:17.096Z,100537.91
2022-12-25T06:59:18.826Z,100530.44
2022-12-25T07:02:22.438Z,100534.66
2022-12-25T07:05:24.096Z,100537.03
2022-12-25T07:08:25.716Z,100543.34
2022-12-25T07:11:28.359Z,100546.84
2022-12-25T07:14:30.031Z,100545.16
2022-12-25T07:17:35.278Z,100555.34
2022-12-25T07:20:37.251Z,100559.56
2022-12-25T07:23:39.526Z,100556.34
2022-12-25T07:26:41.188Z,100566.66
2022-12-25T07:29:43.193Z,100563.53
2022-12-25T07:32:50.021Z,100557.88
2022-12-25T07:35:52.163Z,100547.31
2022-12-25T07:38:54.135Z,100535.69
2022-12-25T07:41:57.671Z,100535.38
2022-12-25T07:45:02.570Z,100527.69
2022-12-25T07:48:05.778Z,100517.75
2022-12-25T07:51:11.601Z,100517.91
2022-12-25T07:54:13.593Z,100518.28
2022-12-25T07:57:15.194Z,100500.00
2022-12-25T08:00:17.752Z,100496.03
2022-12-25T08:03:19.769Z,100486.75
2022-12-25T08:06:23.302Z,100471.47
2022-12-25T08:09:25.178Z,100471.47
2022-12-25T08:12:26.977Z,100482.31
2022-12-25T08:15:30.918Z,100475.19
2022-12-25T08:18:32.822Z,100485.19
2022-12-25T08:21:34.705Z,100500.47
2022-12-25T08:24:36.591Z,100496.56
2022-12-25T08:27:38.485Z,100500.53
2022-12-25T08:30:40.969Z,100498.34
2022-12-25T08:33:43.400Z,100515.06
2022-12-25T08:36:45.117Z,100510.59
2022-12-25T08:39:46.875Z,100514.34
2022-12-25T08:42:48.709Z,100528.50
2022-12-25T08:45:50.628Z,100520.53
2022-12-25T08:48:52.424Z,100521.72
2022-12-25T08:51:54.363Z,100518.16
2022-12-25T08:54:56.472Z,100530.72
2022-12-25T08:57:58.434Z,100532.13
2022-12-25T09:01:01.033Z,100529.38
2022-12-25T09:04:02.827Z,100513.03
2022-12-25T09:07:04.592Z,100502.56
2022-12-25T09:10:07.323Z,100509.84
2022-12-25T09:13:09.926Z,100495.53
2022-12-25T09:16:15.065Z,100484.84
2022-12-25T09:19:17.129Z,100488.50
2022-12-25T09:22:19.502Z,100500.47
2022-12-25T09:25:21.536Z,100512.03
2022-12-25T09:28:23.351Z,100524.72
2022-12-25T09:31:25.331Z,100527.66
2022-12-25T09:34:27.259Z,100517.16
2022-12-25T09:37:29.638Z,100514.59
2022-12-25T09:40:32.596Z,100520.47
2022-12-25T09:43:43.344Z,100521.28
2022-12-25T09:46:50.986Z,100511.13
2022-12-25T09:50:08.701Z,100491.47
2022-12-25T09:53:17.648Z,100508.56
2022-12-25T09:56:26.370Z,100513.38
2022-12-25T09:59:28.208Z,100515.78
2022-12-25T10:02:54.692Z,100509.63
2022-12-25T10:06:18.747Z,100498.31
2022-12-25T10:09:29.762Z,100469.09
2022-12-25T10:12:53.058Z,100433.19
2022-12-25T10:16:05.368Z,100427.94
2022-12-25T10:19:31.722Z,100429.50
2022-12-25T10:23:00.905Z,100422.97
2022-12-25T10:26:04.464Z,100418.22
2022-12-25T10:29:19.968Z,100424.63
2022-12-25T10:32:22.775Z,100420.94
2022-12-25T10:35:28.958Z,100420.00
2022-12-25T10:38:30.973Z,100431.97
2022-12-25T10:42:00.384Z,100429.19
2022-12-25T10:45:05.444Z,100422.50
2022-12-25T10:48:08.189Z,100425.50
2022-12-25T10:51:10.438Z,100421.16
2022-12-25T10:54:20.939Z,100436.63
2022-12-25T10:57:25.696Z,100442.50
2022-12-25T11:00:32.739Z,100440.66
2022-12-25T11:03:39.824Z,100447.34
2022-12-25T11:06:42.958Z,100438.88
2022-12-25T11:09:55.413Z,100438.78
2022-12-25T11:13:01.336Z,100433.84
2022-12-25T11:16:14.970Z,100426.84
2022-12-25T11:19:30.735Z,100421.47
2022-12-25T11:22:37.193Z,100417.28
2022-12-25T11:25:39.222Z,100412.00
2022-12-25T11:28:42.752Z,100411.81
2022-12-25T11:31:46.442Z,100408.72
2022-12-25T11:34:49.532Z,100402.25
2022-12-25T11:37:52.864Z,100401.81
2022-12-25T11:40:59.039Z,100406.13
2022-12-25T11:44:08.152Z,100395.84
2022-12-25T11:47:22.822Z,100391.59
2022-12-25T11:50:29.414Z,100383.78
2022-12-25T11:53:53.054Z,100374.22
2022-12-25T11:56:57.846Z,100368.03
2022-12-25T12:00:06.828Z,100353.38
2022-12-25T12:03:28.547Z,100334.44
2022-12-25T12:06:45.738Z,100341.22
2022-12-25T12:09:48.362Z,100339.59
2022-12-25T12:13:16.802Z,100326.72
2022-12-25T12:16:18.527Z,100319.91
2022-12-25T12:19:31.409Z,100313.94
2022-12-25T12:22:33.164Z,100311.69
2022-12-25T12:25:40.315Z,100320.53
2022-12-25T12:28:47.541Z,100311.41
2022-12-25T12:31:51.381Z,100300.16
2022-12-25T12:34:53.410Z,100294.28
2022-12-25T12:38:00.904Z,100291.72
2022-12-25T12:41:06.558Z,100288.31
2022-12-25T12:44:12.059Z,100277.19
2022-12-25T12:47:39.458Z,100280.72
2022-12-25T12:50:41.928Z,100269.78
2022-12-25T12:53:44.009Z,100272.16
2022-12-25T12:57:02.044Z,100265.13
2022-12-25T13:00:09.917Z,100264.31
2022-12-25T13:03:43.731Z,100243.81
2022-12-25T13:06:51.588Z,100250.00
2022-12-25T13:10:00.882Z,100240.88
2022-12-25T13:13:17.908Z,100259.81
2022-12-25T13:16:29.236Z,100259.00
2022-12-25T13:19:31.082Z,100253.13
2022-12-25T13:22:35.066Z,100246.44
2022-12-25T13:25:36.929Z,100243.13
2022-12-25T13:28:38.942Z,100228.63
2022-12-25T13:31:42.141Z,100221.00
2022-12-25T13:34:44.028Z,100222.69
2022-12-25T13:37:46.063Z,100202.41
2022-12-25T13:41:12.040Z,100204.88
2022-12-25T13:44:23.726Z,100203.44
2022-12-25T13:47:54.886Z,100186.22
2022-12-25T13:50:59.703Z,100180.19
2022-12-25T13:54:12.528Z,100176.66
2022-12-25T13:57:14.635Z,100168.84
2022-12-25T14:00:19.634Z,100167.09
2022-12-25T14:03:34.720Z,100170.06
2022-12-25T14:06:36.678Z,100145.38
2022-12-25T14:09:40.314Z,100142.09
2022-12-25T14:12:43.151Z,100136.94
2022-12-25T14:15:48.074Z,100127.59
2022-12-25T14:18:56.057Z,100106.28
2022-12-25T14:22:11.295Z,100092.28
2022-12-25T14:25:15.656Z,100085.47
2022-12-25T14:28:37.911Z,100083.63
2022-12-25T14:31:40.414Z,100099.88
2022-12-25T14:34:46.559Z,100100.09
2022-12-25T14:37:52.107Z,100112.63
2022-12-25T14:41:05.894Z,100114.28
2022-12-25T14:44:39.546Z,100112.41
2022-12-25T14:47:52.618Z,100099.69
2022-12-25T14:51:19.758Z,100102.13
2022-12-25T14:54:23.561Z,100089.56
2022-12-25T14:57:34.901Z,100089.81
2022-12-25T15:00:39.824Z,100089.81
2022-12-25T15:03:41.888Z,100083.03
2022-12-25T15:07:07.483Z,100081.97
2022-12-25T15:10:57.461Z,100069.94
2022-12-25T15:13:36.289Z,100062.81
2022-12-25T15:16:41.887Z,100070.41
2022-12-25T15:19:43.693Z,100079.81
2022-12-25T15:23:17.751Z,100077.09
2022-12-25T15:26:14.461Z,100077.81
2022-12-25T15:29:27.574Z,100071.25
2022-12-25T15:32:38.626Z,100065.19
2022-12-25T15:35:40.794Z,100064.22
2022-12-25T15:38:42.738Z,100057.22
2022-12-25T15:42:03.190Z,100051.25
2022-12-25T15:45:05.284Z,100048.38
2022-12-25T15:48:06.992Z,100049.03
2022-12-25T15:51:08.550Z,100038.88
2022-12-25T15:54:11.083Z,100032.91
2022-12-25T15:57:22.204Z,100023.22
2022-12-25T16:00:25.978Z,100024.25
2022-12-25T16:03:27.685Z,100020.88
2022-12-25T16:06:29.494Z,100022.25
2022-12-25T16:09:32.313Z,100013.72
2022-12-25T16:12:33.903Z,100016.44
2022-12-25T16:15:35.672Z,100009.19
2022-12-25T16:18:41.903Z,100008.97
2022-12-25T16:21:48.503Z,100002.28
2022-12-25T16:24:50.244Z,99997.03
2022-12-25T16:27:51.847Z,99996.31
2022-12-25T16:30:53.649Z,99997.03
2022-12-25T16:33:55.279Z,99989.41
2022-12-25T16:36:56.924Z,99990.94
2022-12-25T16:39:58.667Z,99986.50
2022-12-25T16:43:00.433Z,99983.59
2022-12-25T16:46:19.170Z,99979.25
2022-12-25T16:49:21.775Z,99974.69
2022-12-25T16:52:24.275Z,99972.34
2022-12-25T16:55:30.031Z,99969.19
2022-12-25T16:58:32.047Z,99977.13
2022-12-25T17:01:34.079Z,99962.63
2022-12-25T17:04:36.004Z,99961.81
2022-12-25T17:07:37.938Z,99944.59
2022-12-25T17:10:39.681Z,99955.72
2022-12-25T17:13:41.739Z,99958.19
2022-12-25T17:16:43.656Z,99953.13
2022-12-25T17:19:45.858Z,99948.34
2022-12-25T17:22:48.905Z,99950.13
2022-12-25T17:25:50.651Z,99951.50
2022-12-25T17:28:52.425Z,99944.97
2022-12-25T17:31:54.365Z,99954.09
2022-12-25T17:34:56.302Z,99949.53
2022-12-25T17:37:58.038Z,99938.63
2022-12-25T17:41:01.576Z,99936.78
2022-12-25T17:44:04.027Z,99936.78
2022-12-25T17:47:08.805Z,99929.66
2022-12-25T17:50:10.580Z,99927.75
2022-12-25T17:53:12.940Z,99920.88
2022-12-25T17:56:16.315Z,99923.44
2022-12-25T17:59:19.036Z,99918.97
2022-12-25T18:02:22.813Z,99909.38
2022-12-25T18:05:24.840Z,99909.84
2022-12-25T18:08:26.573Z,99909.03
2022-12-25T18:11:32.778Z,99907.41
2022-12-25T18:14:35.335Z,99906.22
2022-12-25T18:17:39.320Z,99906.81
2022-12-25T18:20:42.333Z,99908.44
2022-12-25T18:23:46.376Z,99893.13
2022-12-25T18:26:49.197Z,99898.28
2022-12-25T18:29:52.286Z,99888.09
2022-12-25T18:32:53.964Z,99883.75
2022-12-25T18:36:02.564Z,99889.16
2022-12-25T18:39:04.675Z,99889.16
2022-12-25T18:42:25.249Z,99888.34
2022-12-25T18:45:28.671Z,99886.56
2022-12-25T18:48:31.716Z,99893.25
2022-12-25T18:51:37.059Z,99899.91
2022-12-25T18:54:39.030Z,99888.91
2022-12-25T18:57:41.631Z,99879.53
2022-12-25T19:00:43.539Z,99879.53
2022-12-25T19:03:47.347Z,99881.06
2022-12-25T19:06:49.797Z,99876.63
2022-12-25T19:09:51.683Z,99884.22
2022-12-25T19:12:53.576Z,99881.63
2022-12-25T19:15:58.753Z,99883.28
2022-12-25T19:19:01.330Z,99867.47
2022-12-25T19:22:03.196Z,99865.13
2022-12-25T19:25:08.100Z,99868.41
2022-12-25T19:28:09.790Z,99870.59
2022-12-25T19:31:12.585Z,99867.44
2022-12-25T19:34:14.747Z,99867.75
2022-12-25T19:37:16.606Z,99866.34
2022-12-25T19:40:18.709Z,99858.13
2022-12-25T19:43:20.414Z,99850.84
2022-12-25T19:46:28.241Z,99855.31
2022-12-25T19:49:30.870Z,99849.34
2022-12-25T19:52:32.761Z,99850.25
2022-12-25T19:55:34.472Z,99852.72
2022-12-25T19:58:36.256Z,99843.34
2022-12-25T20:01:39.094Z,99841.81
2022-12-25T20:04:41.089Z,99847.81
2022-12-25T20:07:42.774Z,99843.47
2022-12-25T20:10:45.637Z,99829.63
2022-12-25T20:13:50.335Z,99828.81
2022-12-25T20:16:52.691Z,99834.22
2022-12-25T20:19:54.383Z,99833.41
2022-12-25T20:22:56.117Z,99830.97
2022-12-25T20:26:01.910Z,99835.84
2022-12-25T20:29:04.048Z,99842.53
2022-12-25T20:32:09.710Z,99831.97
2022-12-25T20:35:15.996Z,99842.41
2022-12-25T20:38:18.060Z,99834.44
2022-12-25T20:41:29.697Z,99845.19
2022-12-25T20:44:31.797Z,99842.63
2022-12-25T20:47:34.603Z,99838.84
2022-12-25T20:50:36.871Z,99845.53
2022-12-25T20:53:42.602Z,99853.97
2022-12-25T20:56:48.334Z,99858.06
2022-12-25T20:59:51.194Z,99853.81
2022-12-25T21:02:53.090Z,99859.34
2022-12-25T21:05:56.230Z,99855.94
2022-12-25T21:08:57.954Z,99871.88
2022-12-25T21:11:59.913Z,99860.41
2022-12-25T21:15:01.764Z,99857.69
2022-12-25T21:18:03.827Z,99873.31
2022-12-25T21:21:08.371Z,99868.38
2022-12-25T21:24:11.018Z,99863.22
2022-12-25T21:27:12.809Z,99869.06
2022-12-25T21:30:15.877Z,99878.91
2022-12-25T21:33:36.714Z,99871.16
2022-12-25T21:36:40.106Z,99882.41
2022-12-25T21:39:42.890Z,99874.69
2022-12-25T21:42:45.724Z,99875.50
2022-12-25T21:45:47.715Z,99875.50
2022-12-25T21:48:50.135Z,99865.44
2022-12-25T21:52:10.096Z,99870.34
2022-12-25T21:55:14.843Z,99868.47
2022-12-25T21:58:16.545Z,99870.00
2022-12-25T22:01:18.849Z,99869.03
2022-12-25T22:04:22.796Z,99864.69
2022-12-25T22:07:24.512Z,99866.91
2022-12-25T22:10:26.598Z,99863.00
2022-12-25T22:13:47.243Z,99854.78
2022-12-25T22:17:09.105Z,99861.56
2022-12-25T22:20:17.068Z,99870.00
2022-12-25T22:23:19.458Z,99871.50
2022-12-25T22:26:21.322Z,99879.00
2022-12-25T22:29:23.253Z,99890.00
2022-12-25T22:32:25.023Z,99895.88
2022-12-25T22:35:26.783Z,99892.22
2022-12-25T22:38:28.610Z,99893.72
2022-12-25T22:41:33.645Z,99911.16
2022-12-25T22:44:35.777Z,99904.19
2022-12-25T22:47:38.078Z,99909.78
2022-12-25T22:50:39.831Z,99904.09
2022-12-25T22:53:41.655Z,99910.47
2022-12-25T22:56:45.093Z,99910.34
2022-12-25T22:59:46.884Z,99904.78
2022-12-25T23:02:48.923Z,99909.41
2022-12-25T23:05:56.521Z,99908.34
2022-12-25T23:08:58.108Z,99908.44
2022-12-25T23:11:59.993Z,99902.84
2022-12-25T23:15:01.966Z,99901.50
2022-12-25T23:18:22.380Z,99909.16
2022-12-25T23:21:46.099Z,99906.44
2022-12-25T23:25:06.567Z,99908.19
2022-12-25T23:28:08.387Z,99914.75
2022-12-25T23:31:14.047Z,99919.22
2022-12-25T23:34:16.104Z,99927.53
2022-12-25T23:37:18.646Z,99920.34
2022-12-25T23:40:20.600Z,99920.16
2022-12-25T23:43:22.335Z,99934.41
2022-12-25T23:46:24.554Z,99930.88
2022-12-25T23:49:27.591Z,99920.66
2022-12-25T23:52:29.363Z,99919.31
2022-12-25T23:55:31.058Z,99941.69
2022-12-25T23:58:32.740Z,99934.53
